FDX915 RPVB-RPVM
Flight info
| Callsign | FDX915 |
|---|---|
| Flight time | 0h 20m |
| Altitude | 13000 |
| Route | VIC2A VICTA B473 DELOR DELOR3P |
| Aircraft | B738/M-SDE2E3FGHIRWXY/LB1 |
Departure
| Time | 2026-04-24 08:04 |
|---|---|
| Airport | Bacolod-Silay International Airport (RPVB) |
Arrival
| Time | 2026-04-24 08:25 |
|---|---|
| Airport | Mactan Cebu International Airport (RPVM) |
| Time | Latitude | Longitude | Altitude | Speed | Heading |
|---|---|---|---|---|---|
| 2026-04-24 07:45 | 10.77703 | 123.01599 | 81 ft | 0 kts | 300° |
| 2026-04-24 07:54 | 10.77701 | 123.01604 | 84 ft | 2 kts | 299° |
| 2026-04-24 07:54 | 10.77693 | 123.01618 | 82 ft | 2 kts | 295° |
| 2026-04-24 07:54 | 10.77687 | 123.01634 | 84 ft | 2 kts | 287° |
| 2026-04-24 07:54 | 10.77684 | 123.01650 | 82 ft | 2 kts | 266° |
| 2026-04-24 07:55 | 10.77689 | 123.01666 | 83 ft | 2 kts | 220° |
| 2026-04-24 07:55 | 10.77696 | 123.01671 | 82 ft | 0 kts | 210° |
| 2026-04-24 07:57 | 10.77693 | 123.01669 | 82 ft | 3 kts | 208° |
| 2026-04-24 07:58 | 10.77640 | 123.01638 | 83 ft | 14 kts | 210° |
| 2026-04-24 07:58 | 10.77521 | 123.01569 | 82 ft | 23 kts | 209° |
| 2026-04-24 07:58 | 10.77376 | 123.01523 | 83 ft | 22 kts | 156° |
| 2026-04-24 07:58 | 10.77284 | 123.01645 | 81 ft | 22 kts | 135° |
| 2026-04-24 07:59 | 10.77206 | 123.01644 | 81 ft | 11 kts | 202° |
| 2026-04-24 07:59 | 10.77141 | 123.01608 | 82 ft | 11 kts | 210° |
| 2026-04-24 07:59 | 10.77078 | 123.01571 | 84 ft | 10 kts | 210° |
| 2026-04-24 07:59 | 10.77016 | 123.01535 | 82 ft | 11 kts | 209° |
| 2026-04-24 08:00 | 10.76938 | 123.01458 | 85 ft | 18 kts | 227° |
| 2026-04-24 08:00 | 10.76906 | 123.01438 | 83 ft | 0 kts | 188° |
| 2026-04-24 08:00 | 10.76904 | 123.01439 | 83 ft | 1 kts | 164° |
| 2026-04-24 08:00 | 10.76896 | 123.01452 | 85 ft | 2 kts | 101° |
| 2026-04-24 08:01 | 10.76908 | 123.01471 | 83 ft | 1 kts | 36° |
| 2026-04-24 08:02 | 10.76909 | 123.01471 | 83 ft | 0 kts | 36° |
| 2026-04-24 08:03 | 10.76910 | 123.01472 | 80 ft | 0 kts | 32° |
| 2026-04-24 08:04 | 10.77016 | 123.01537 | 83 ft | 55 kts | 30° |
| 2026-04-24 08:04 | 10.77594 | 123.01873 | 82 ft | 133 kts | 29° |
| 2026-04-24 08:04 | 10.78529 | 123.02423 | 509 ft | 163 kts | 31° |
| 2026-04-24 08:04 | 10.79528 | 123.02970 | 1524 ft | 161 kts | 31° |
| 2026-04-24 08:05 | 10.80469 | 123.03533 | 2406 ft | 152 kts | 33° |
| 2026-04-24 08:05 | 10.81403 | 123.04095 | 2880 ft | 168 kts | 33° |
| 2026-04-24 08:05 | 10.82491 | 123.04753 | 3171 ft | 197 kts | 32° |
| 2026-04-24 08:05 | 10.83740 | 123.05501 | 3411 ft | 220 kts | 32° |
| 2026-04-24 08:06 | 10.85130 | 123.06313 | 3687 ft | 238 kts | 27° |
| 2026-04-24 08:06 | 10.86793 | 123.06683 | 3997 ft | 259 kts | 6° |
| 2026-04-24 08:06 | 10.88538 | 123.07212 | 4424 ft | 268 kts | 31° |
| 2026-04-24 08:06 | 10.90166 | 123.08174 | 5154 ft | 271 kts | 31° |
| 2026-04-24 08:07 | 10.91643 | 123.09346 | 5854 ft | 273 kts | 53° |
| 2026-04-24 08:07 | 10.92499 | 123.11018 | 6620 ft | 269 kts | 76° |
| 2026-04-24 08:07 | 10.92669 | 123.12914 | 7270 ft | 274 kts | 98° |
| 2026-04-24 08:07 | 10.92030 | 123.14758 | 8000 ft | 275 kts | 122° |
| 2026-04-24 08:08 | 10.90673 | 123.16152 | 8605 ft | 285 kts | 145° |
| 2026-04-24 08:08 | 10.88988 | 123.17181 | 9309 ft | 288 kts | 148° |
| 2026-04-24 08:08 | 10.87235 | 123.18193 | 9988 ft | 292 kts | 149° |
| 2026-04-24 08:09 | 10.83502 | 123.20340 | 10524 ft | 329 kts | 149° |
| 2026-04-24 08:09 | 10.81451 | 123.21531 | 10664 ft | 349 kts | 148° |
| 2026-04-24 08:09 | 10.79300 | 123.22786 | 10944 ft | 362 kts | 149° |
| 2026-04-24 08:09 | 10.77098 | 123.24075 | 11475 ft | 366 kts | 149° |
| 2026-04-24 08:10 | 10.74883 | 123.25374 | 12080 ft | 369 kts | 149° |
| 2026-04-24 08:10 | 10.72756 | 123.26824 | 12671 ft | 369 kts | 139° |
| 2026-04-24 08:10 | 10.70839 | 123.28566 | 12862 ft | 370 kts | 136° |
| 2026-04-24 08:10 | 10.68994 | 123.30347 | 12863 ft | 362 kts | 135° |
| 2026-04-24 08:11 | 10.67177 | 123.32108 | 12868 ft | 359 kts | 135° |
| 2026-04-24 08:11 | 10.65350 | 123.33853 | 12226 ft | 366 kts | 136° |
| 2026-04-24 08:11 | 10.63488 | 123.35605 | 11713 ft | 365 kts | 136° |
| 2026-04-24 08:11 | 10.61649 | 123.37316 | 11270 ft | 353 kts | 136° |
| 2026-04-24 08:12 | 10.59861 | 123.38973 | 10837 ft | 342 kts | 136° |
| 2026-04-24 08:12 | 10.58148 | 123.40559 | 10696 ft | 324 kts | 136° |
| 2026-04-24 08:12 | 10.56520 | 123.42066 | 10529 ft | 309 kts | 136° |
| 2026-04-24 08:12 | 10.54971 | 123.43501 | 10397 ft | 295 kts | 136° |
| 2026-04-24 08:13 | 10.53464 | 123.44896 | 10305 ft | 292 kts | 136° |
| 2026-04-24 08:13 | 10.51965 | 123.46288 | 10245 ft | 292 kts | 136° |
| 2026-04-24 08:13 | 10.50468 | 123.47676 | 10162 ft | 290 kts | 136° |
| 2026-04-24 08:13 | 10.48993 | 123.49042 | 10050 ft | 283 kts | 136° |
| 2026-04-24 08:14 | 10.47550 | 123.50377 | 9818 ft | 280 kts | 136° |
| 2026-04-24 08:14 | 10.46114 | 123.51707 | 9534 ft | 279 kts | 136° |
| 2026-04-24 08:14 | 10.44684 | 123.53031 | 9240 ft | 278 kts | 136° |
| 2026-04-24 08:14 | 10.43259 | 123.54350 | 8948 ft | 277 kts | 136° |
| 2026-04-24 08:15 | 10.41839 | 123.55664 | 8664 ft | 276 kts | 136° |
| 2026-04-24 08:15 | 10.40423 | 123.56973 | 8372 ft | 275 kts | 136° |
| 2026-04-24 08:15 | 10.39011 | 123.58279 | 8091 ft | 274 kts | 136° |
| 2026-04-24 08:15 | 10.37605 | 123.59579 | 7808 ft | 274 kts | 136° |
| 2026-04-24 08:16 | 10.36199 | 123.60880 | 7513 ft | 273 kts | 136° |
| 2026-04-24 08:16 | 10.34798 | 123.62177 | 7241 ft | 272 kts | 136° |
| 2026-04-24 08:16 | 10.33446 | 123.63484 | 6955 ft | 271 kts | 133° |
| 2026-04-24 08:16 | 10.32115 | 123.64843 | 6670 ft | 271 kts | 133° |
| 2026-04-24 08:17 | 10.30790 | 123.66206 | 6377 ft | 271 kts | 133° |
| 2026-04-24 08:17 | 10.29469 | 123.67561 | 6090 ft | 269 kts | 133° |
| 2026-04-24 08:17 | 10.28150 | 123.68909 | 5816 ft | 268 kts | 133° |
| 2026-04-24 08:17 | 10.26840 | 123.70245 | 5519 ft | 268 kts | 133° |
| 2026-04-24 08:18 | 10.25530 | 123.71578 | 5247 ft | 268 kts | 133° |
| 2026-04-24 08:18 | 10.24229 | 123.72901 | 5148 ft | 259 kts | 133° |
| 2026-04-24 08:18 | 10.22986 | 123.74163 | 5090 ft | 245 kts | 133° |
| 2026-04-24 08:18 | 10.21812 | 123.75355 | 4982 ft | 232 kts | 133° |
| 2026-04-24 08:19 | 10.20701 | 123.76481 | 4864 ft | 220 kts | 132° |
| 2026-04-24 08:19 | 10.19625 | 123.77575 | 4460 ft | 223 kts | 133° |
| 2026-04-24 08:19 | 10.18553 | 123.78663 | 4288 ft | 212 kts | 132° |
| 2026-04-24 08:19 | 10.17542 | 123.79690 | 4164 ft | 204 kts | 132° |
| 2026-04-24 08:20 | 10.16566 | 123.80713 | 3921 ft | 197 kts | 124° |
| 2026-04-24 08:20 | 10.16239 | 123.81935 | 3846 ft | 176 kts | 77° |
| 2026-04-24 08:20 | 10.16796 | 123.83058 | 3709 ft | 184 kts | 62° |
| 2026-04-24 08:20 | 10.17447 | 123.84198 | 3438 ft | 188 kts | 56° |
| 2026-04-24 08:21 | 10.18254 | 123.85235 | 3211 ft | 187 kts | 51° |
| 2026-04-24 08:21 | 10.19115 | 123.86199 | 2976 ft | 181 kts | 48° |
| 2026-04-24 08:21 | 10.19989 | 123.87111 | 2732 ft | 180 kts | 47° |
| 2026-04-24 08:21 | 10.20879 | 123.88017 | 2489 ft | 179 kts | 46° |
| 2026-04-24 08:22 | 10.21725 | 123.88870 | 2272 ft | 163 kts | 46° |
| 2026-04-24 08:22 | 10.22497 | 123.89645 | 2033 ft | 148 kts | 47° |
| 2026-04-24 08:22 | 10.23218 | 123.90370 | 1890 ft | 145 kts | 47° |
| 2026-04-24 08:22 | 10.23950 | 123.91107 | 1680 ft | 147 kts | 46° |
| 2026-04-24 08:23 | 10.24672 | 123.91832 | 1452 ft | 144 kts | 48° |
| 2026-04-24 08:23 | 10.25382 | 123.92547 | 1282 ft | 145 kts | 45° |
| 2026-04-24 08:23 | 10.26109 | 123.93277 | 1077 ft | 148 kts | 47° |
| 2026-04-24 08:23 | 10.26822 | 123.93993 | 913 ft | 141 kts | 45° |
| 2026-04-24 08:24 | 10.27540 | 123.94693 | 720 ft | 145 kts | 44° |
| 2026-04-24 08:24 | 10.28236 | 123.95397 | 470 ft | 139 kts | 46° |
| 2026-04-24 08:24 | 10.28898 | 123.96074 | 318 ft | 132 kts | 46° |
| 2026-04-24 08:24 | 10.29556 | 123.96740 | 120 ft | 133 kts | 45° |
| 2026-04-24 08:25 | 10.29984 | 123.97173 | 42 ft | 128 kts | 45° |
| 2026-04-24 08:25 | 10.30686 | 123.97875 | 33 ft | 82 kts | 45° |
| 2026-04-24 08:25 | 10.31009 | 123.98195 | 35 ft | 39 kts | 43° |
| 2026-04-24 08:25 | 10.31146 | 123.98295 | 37 ft | 34 kts | 24° |
| 2026-04-24 08:26 | 10.31351 | 123.98347 | 38 ft | 29 kts | 340° |